Terminal Aerodrome Forecast
Issued by NWS

Home | Current Version | Previous Version | Text Only | Print | Product List | Glossary On
Versions: 1 2 3 4 5 6 7 8 9 10 11 12 13 14 15 16 17 18
000
FTUS43 KABR 220000 AAA
TAFMBG
TAF AMD
KMBG 220019Z 2200/2224 11011KT P6SM BKN004
     FM220800 08005KT P6SM OVC015
     FM221300 34012KT 4SM -SN BR OVC007=

USA.gov is the U.S. government's official web portal to all federal, state and local government web resources and services.